NWS Home NWS Lubbock West Texas Mesonet North Sector Latest Conditions as of 1134 AM, Sun Sep 20, 2020

Latest   N   C   S   Daily Sum   3hrΔ   24hrΔ   Soil Data 
Site Map   24hr Precip   72hr Precip   Google Plot


Station Time of Last Temp Dew Pt. RH Wind Direction Wind Speed Wind Gust Max Wind Max Temp Min Temp Max RH Min RH Altimeter 1HR Rain Today's Rain Solar Rad
Adrian 6WSW  11:30 AM 72 53 51% SW2024 27 mph 216° @ 1118 AM 72 54 89 51 30.24" 0 0.00 697
Aiken 3WSW  11:30 AM 70 54 57% SW810 14 mph 220° @ 1119 AM 70 48 94 57 30.26" 0 0.00 696
Amarillo 15NNW   11:30 AM 74 54 50% S1823 25 mph 192° @ 1038 AM 74 54 86 50 30.21" 0 0.00 676
Amarillo 7SSE  11:30 AM 73 53 51% S1621 26 mph 206° @ 1026 AM 73 49 100 50 30.24" 0 0.00 667
Amarillo 9NNE  11:30 AM 72 54 53% S1518 25 mph 181° @ 1011 AM 73 54 87 51 30.22" 0 0.00 657
Amherst 1NE  11:30 AM 70 52 55% S1316 17 mph 177° @ 1105 AM 70 48 94 55 30.25" 0 0.00 663
Bootleg 11WNW  11:30 AM 70 52 53% SW1518 26 mph 201° @ 1054 AM 70 54 92 53 30.28" 0 0.00 604
Borger 7E  11:30 AM 74 54 49% S1520 26 mph 201° @ 1023 AM 74 55 83 49 30.21" 0 0.00 707
Boys Ranch 1WSW  11:30 AM 76 55 48% SW1517 23 mph 183° @ 0149 AM 76 56 86 47 30.16" 0 0.00 655
Canadian 6E  11:30 AM 73 58 60% S1013 20 mph 188° @ 1031 AM 73 54 97 59 30.19" 0 0.00 671
Caprock Canyons State Park  11:25 AM 73 55 53% S79 16 mph 222° @ 0950 AM 73 55 86 52 30.23" 0 0.00 687
Childress 2NNE  11:30 AM 72 55 58% S911 16 mph 170° @ 1050 AM 72 55 95 58 30.22" 0 0.00 631
Clarendon 2WSW  11:30 AM 70 54 58% SW1216 18 mph 206° @ 1120 AM 70 50 93 58 30.23" 0 0.00 678
Claude 12SW  11:30 AM 70 53 54% S69 18 mph 156° @ 1228 AM 70 55 86 54 30.24" 0 0.00 651
Dimmitt 2NE  11:30 AM 69 53 58% S1417 20 mph 198° @ 1030 AM 69 51 92 58 30.25" 0 0.00 677
Dozier 3W  11:30 AM 73 58 60% S79 17 mph 199° @ 1045 AM 73 51 100 60 30.23" 0 0.00 655
Earth 9WSW  11:30 AM 73 53 51% S1215 23 mph 182° @ 1004 AM 73 50 93 50 30.26" 0 0.00 704
Endee NM 2SW  11:30 AM 74 54 50% S1519 27 mph 210° @ 1014 AM 74 59 78 50 30.22" 0 0.00 635
Estelline 3SSE  11:30 AM 73 57 58% SE1113 13 mph 147° @ 1130 AM 73 52 97 57 30.22" 0 0.00 675
Floydada 2NNE  11:30 AM 71 52 51% S913 16 mph 207° @ 1030 AM 71 50 93 51 30.25" 0 0.00 673
Friona 2NE  11:30 AM 73 52 49% SW1520 24 mph 205° @ 1035 AM 73 49 92 49 30.26" 0 0.00 703
Fritch 1WNW  11:30 AM 73 54 52% S1416 27 mph 219° @ 0957 AM 73 57 77 52 30.20" 0 0.00 721
Goodlett 3W  11:30 AM 71 56 60% SE69 12 mph 162° @ 1105 AM 71 53 96 60 30.21" 0 0.00 682
Goodnight  11:30 AM 71 54 54% S1516 18 mph 197° @ 1105 AM 71 47 97 54 30.25" 0 0.00 660
Happy 1E  11:30 AM 71 54 54% S1416 21 mph 210° @ 1037 AM 72 49 93 54 30.26" 0 0.00 693
Hart 3N  11:30 AM 70 54 59% S1016 19 mph 200° @ 1100 AM 70 47 97 59 30.26" 0 0.00 666
Hereford 2NW  11:30 AM 72 52 51% SW1419 24 mph 199° @ 1055 AM 72 51 90 51 30.24" 0 0.00 674
Lake McClellan 2NW  11:30 AM 71 53 54% SW1718 23 mph 201° @ 1048 AM 71 56 88 54 30.24" 0 0.00 655
Lesley 2S  11:30 AM 70 57 62% S56 9 mph 134° @ 1053 AM 70 54 89 61 30.22" 0 0.00 696
McLean 1E  11:30 AM 69 54 62% S1317 21 mph 194° @ 1005 AM 69 53 94 62 30.22" 0 0.00 732
Memphis 1NE  11:30 AM 71 56 61% S714 14 mph 180° @ 1130 AM 71 49 94 61 30.22" 0 0.00 628
Muleshoe 2SSW  11:30 AM 72 53 53% S1216 19 mph 192° @ 1100 AM 72 49 96 53 30.25" 0 0.00 739
Northfield 1S  11:30 AM 74 53 50% S611 11 mph 185° @ 1125 AM 74 54 91 50 30.21" 0 0.00 650
Odell 4ENE  11:30 AM 71 56 60% SE911 13 mph 154° @ 1037 AM 71 50 99 60 30.23" 0 0.00 704
Olton 6S  11:30 AM 70 54 60% S1115 19 mph 200° @ 1000 AM 70 47 99 60 30.25" 0 0.00 689
Palo Duro 4E (JA Ranch)  11:30 AM 71 56 58% S89 10 mph 173° @ 1129 AM 71 45 98 58 30.23" 0 0.00 670
Palo Duro Canyon SP Floor  11:30 AM 75 54 48% SW1014 18 mph 202° @ 1004 AM 75 53 85 47 30.22" 0 0.00 614
Palo Duro Canyon State Park Rim  11:30 AM 73 53 50% SW1319 23 mph 201° @ 1042 AM 73 53 82 48 30.25" 0 0.00 682
Palo Duro Reservoir 1NW   11:25 AM 74 55 51% S1723 26 mph 186° @ 1051 AM 74 52 92 51 30.18" 0 0.00 639
Pampa 2E  11:30 AM 72 54 55% S1419 24 mph 187° @ 1115 AM 72 52 93 55 30.22" 0 0.00 662
Panhandle 1SSW  11:30 AM 72 54 54% S1318 20 mph 188° @ 1016 AM 73 47 100 52 30.24" 0 0.00 682
Plainview 1S  11:30 AM 70 55 60% SW812 14 mph 186° @ 1110 AM 70 49 96 60 30.25" 0 0.00 658
Romero 11SSW  11:30 AM 73 54 50% SW1822 24 mph 228° @ 1126 AM 73 56 86 50 30.21" 0 0.00 638
Silverton 7ESE  11:30 AM 72 53 53% SW1116 17 mph 221° @ 1030 AM 72 51 96 53 30.24" 0 0.00 606
South Plains 3ENE  11:30 AM 72 55 55% S610 16 mph 206° @ 1012 AM 72 47 98 54 30.25" 0 0.00 671
Stinnett 1NNW  11:30 AM 74 54 51% S1518 26 mph 172° @ 1208 AM 74 53 94 50 30.21" 0 0.00 676
Stratford 4WNW  11:30 AM 73 55 53% SW2025 29 mph 212° @ 1054 AM 73 53 89 53 30.18" 0 0.00 678
Tulia 2ENE  11:30 AM 70 53 55% S1417 19 mph 186° @ 1100 AM 70 50 89 55 30.25" 0 0.00 587
Turkey 2WSW  11:30 AM 72 55 57% S69 11 mph 178° @ 1050 AM 72 52 90 57 30.22" 0 0.00 602
Umbarger 3NNE  11:30 AM 72 53 52% SW1418 22 mph 204° @ 1046 AM 72 52 93 52 30.25" 0 0.00 674
Vigo Park  11:30 AM 72 54 54% S1215 19 mph 187° @ 1110 AM 72 47 100 54 30.25" 0 0.00 599

West Texas Mesonet Home   Site Map/Menu  NWS Lubbock Soil Data  Daily Summary Page  24hr Precip  72hr Precip  Google Plot